Time,TemperatureF,DewpointF,PressureIn,WindDirection,WindDirectionDegrees,WindSpeedMPH,WindSpeedGustMPH,Humidity,HourlyPrecipIn,Conditions,Clouds,dailyrainin,SolarRadiationWatts/m^2,SoftwareType,DateUTC
2013-02-02 00:01:00,28.0,25.0,-100.00,ENE,73,1.0,3.0,86,-99.99,,,0.00,0.000000,,2013-02-02 08:01:00,
2013-02-02 00:11:00,28.0,25.0,-100.00,ENE,73,1.0,3.0,86,-99.99,,,0.00,0.000000,,2013-02-02 08:11:00,
2013-02-02 01:41:00,28.0,25.0,-100.00,West,271,1.0,3.0,88,-99.99,,,0.00,0.000000,,2013-02-02 09:41:00,
2013-02-02 01:52:00,28.0,25.0,-100.00,West,271,1.0,3.0,88,-99.99,,,0.00,0.000000,,2013-02-02 09:52:00,
2013-02-02 02:01:00,28.0,25.0,-100.00,West,271,1.0,3.0,88,-99.99,,,0.00,0.000000,,2013-02-02 10:01:00,
2013-02-02 02:11:00,28.0,25.0,-100.00,West,271,1.0,3.0,88,-99.99,,,0.00,0.000000,,2013-02-02 10:11:00,
2013-02-02 02:41:00,26.0,23.0,-100.00,SW,234,2.0,3.0,87,-99.99,,,0.00,0.000000,,2013-02-02 10:41:00,
2013-02-02 02:52:00,26.0,23.0,-100.00,SW,234,2.0,3.0,87,-99.99,,,0.00,0.000000,,2013-02-02 10:52:00,
2013-02-02 03:01:00,26.0,23.0,-100.00,SW,234,2.0,3.0,87,-99.99,,,0.00,0.000000,,2013-02-02 11:01:00,
2013-02-02 03:11:00,26.0,23.0,-100.00,SW,234,2.0,3.0,87,-99.99,,,0.00,0.000000,,2013-02-02 11:11:00,
2013-02-02 03:41:00,26.0,23.0,-100.00,NNW,333,1.0,2.0,89,-99.99,,,0.00,0.000000,,2013-02-02 11:41:00,
2013-02-02 03:52:00,26.0,23.0,-100.00,NNW,333,1.0,2.0,89,-99.99,,,0.00,0.000000,,2013-02-02 11:52:00,
2013-02-02 04:01:00,26.0,23.0,-100.00,NNW,333,1.0,2.0,89,-99.99,,,0.00,0.000000,,2013-02-02 12:01:00,
2013-02-02 04:11:00,26.0,23.0,-100.00,NNW,333,1.0,2.0,89,-99.99,,,0.00,0.000000,,2013-02-02 12:11:00,
2013-02-02 04:32:00,24.0,22.0,-100.00,West,261,3.0,4.0,90,-99.99,,,0.00,0.000000,,2013-02-02 12:32:00,
2013-02-02 04:42:00,24.0,22.0,-100.00,West,261,3.0,4.0,90,-99.99,,,0.00,0.000000,,2013-02-02 12:42:00,
2013-02-02 04:52:00,24.0,22.0,-100.00,West,261,3.0,4.0,90,-99.99,,,0.00,0.000000,,2013-02-02 12:52:00,
2013-02-02 05:02:00,24.0,22.0,-100.00,West,261,3.0,4.0,90,-99.99,,,0.00,0.000000,,2013-02-02 13:02:00,
2013-02-02 05:11:00,24.0,22.0,-100.00,West,261,3.0,4.0,90,-99.99,,,0.00,0.000000,,2013-02-02 13:11:00,
2013-02-02 05:32:00,24.0,22.0,-100.00,South,191,0.0,1.0,95,-99.99,,,0.00,0.000000,,2013-02-02 13:32:00,
2013-02-02 05:42:00,24.0,22.0,-100.00,South,191,0.0,1.0,95,-99.99,,,0.00,0.000000,,2013-02-02 13:42:00,
2013-02-02 05:52:00,24.0,22.0,-100.00,South,191,0.0,1.0,95,-99.99,,,0.00,0.000000,,2013-02-02 13:52:00,
2013-02-02 06:02:00,24.0,22.0,-100.00,South,191,0.0,1.0,95,-99.99,,,0.00,0.000000,,2013-02-02 14:02:00,
2013-02-02 06:11:00,24.0,22.0,-100.00,South,191,0.0,1.0,95,-99.99,,,0.00,0.000000,,2013-02-02 14:11:00,
2013-02-02 06:42:00,23.0,23.0,-100.00,South,191,0.0,1.0,98,-99.99,,,0.00,0.000000,,2013-02-02 14:42:00,
2013-02-02 06:52:00,23.0,23.0,-100.00,South,191,0.0,1.0,98,-99.99,,,0.00,0.000000,,2013-02-02 14:52:00,
2013-02-02 07:02:00,23.0,23.0,-100.00,South,191,0.0,1.0,98,-99.99,,,0.00,0.000000,,2013-02-02 15:02:00,
2013-02-02 07:11:00,23.0,23.0,-100.00,South,191,0.0,1.0,98,-99.99,,,0.00,0.000000,,2013-02-02 15:11:00,
2013-02-02 07:42:00,24.0,23.0,-100.00,North,354,0.0,1.0,96,-99.99,,,0.00,5.000000,,2013-02-02 15:42:00,
2013-02-02 07:52:00,24.0,23.0,-100.00,North,354,0.0,1.0,96,-99.99,,,0.00,5.000000,,2013-02-02 15:52:00,
2013-02-02 08:02:00,24.0,23.0,-100.00,North,354,0.0,1.0,96,-99.99,,,0.00,5.000000,,2013-02-02 16:02:00,
2013-02-02 08:11:00,24.0,23.0,-100.00,North,354,0.0,1.0,96,-99.99,,,0.00,5.000000,,2013-02-02 16:11:00,
2013-02-02 08:42:00,26.0,25.0,-100.00,South,190,1.0,2.0,95,-99.99,,,0.00,88.330002,,2013-02-02 16:42:00,
2013-02-02 08:52:00,26.0,25.0,-100.00,South,190,1.0,2.0,95,-99.99,,,0.00,88.330002,,2013-02-02 16:52:00,
2013-02-02 09:02:00,26.0,25.0,-100.00,South,190,1.0,2.0,95,-99.99,,,0.00,88.330002,,2013-02-02 17:02:00,
2013-02-02 09:11:00,26.0,25.0,-100.00,South,190,1.0,2.0,95,-99.99,,,0.00,88.330002,,2013-02-02 17:11:00,
2013-02-02 09:32:00,34.0,31.0,-100.00,South,191,0.0,0.0,90,-99.99,,,0.00,176.419998,,2013-02-02 17:32:00,
2013-02-02 09:41:00,34.0,31.0,-100.00,South,191,0.0,0.0,90,-99.99,,,0.00,176.419998,,2013-02-02 17:41:00,
2013-02-02 09:52:00,34.0,31.0,-100.00,South,191,0.0,0.0,90,-99.99,,,0.00,176.419998,,2013-02-02 17:52:00,
2013-02-02 10:02:00,34.0,31.0,-100.00,South,191,0.0,0.0,90,-99.99,,,0.00,176.419998,,2013-02-02 18:02:00,
2013-02-02 10:11:00,34.0,31.0,-100.00,South,191,0.0,0.0,90,-99.99,,,0.00,176.419998,,2013-02-02 18:11:00,
2013-02-02 10:42:00,39.0,33.0,-100.00,WNW,283,1.0,3.0,79,-99.99,,,0.00,342.380005,,2013-02-02 18:42:00,
2013-02-02 10:52:00,39.0,33.0,-100.00,WNW,283,1.0,3.0,79,-99.99,,,0.00,342.380005,,2013-02-02 18:52:00,
2013-02-02 11:01:00,39.0,33.0,-100.00,WNW,283,1.0,3.0,79,-99.99,,,0.00,342.380005,,2013-02-02 19:01:00,
2013-02-02 11:11:00,39.0,33.0,-100.00,WNW,283,1.0,3.0,79,-99.99,,,0.00,342.380005,,2013-02-02 19:11:00,
2013-02-02 11:41:00,42.0,33.0,-100.00,West,262,2.0,5.0,69,-99.99,,,0.00,324.720001,,2013-02-02 19:41:00,
2013-02-02 11:52:00,42.0,33.0,-100.00,West,262,2.0,5.0,69,-99.99,,,0.00,324.720001,,2013-02-02 19:52:00,
2013-02-02 12:01:00,42.0,33.0,-100.00,West,262,2.0,5.0,69,-99.99,,,0.00,324.720001,,2013-02-02 20:01:00,
2013-02-02 12:11:00,42.0,33.0,-100.00,West,262,2.0,5.0,69,-99.99,,,0.00,324.720001,,2013-02-02 20:11:00,
2013-02-02 12:32:00,44.0,32.0,-100.00,East,80,3.0,5.0,63,-99.99,,,0.00,262.540009,,2013-02-02 20:32:00,
2013-02-02 12:41:00,44.0,32.0,-100.00,East,80,3.0,5.0,63,-99.99,,,0.00,262.540009,,2013-02-02 20:41:00,
2013-02-02 12:52:00,44.0,32.0,-100.00,East,80,3.0,5.0,63,-99.99,,,0.00,262.540009,,2013-02-02 20:52:00,
2013-02-02 13:02:00,44.0,32.0,-100.00,East,80,3.0,5.0,63,-99.99,,,0.00,262.540009,,2013-02-02 21:02:00,
2013-02-02 13:11:00,44.0,32.0,-100.00,East,80,3.0,5.0,63,-99.99,,,0.00,262.540009,,2013-02-02 21:11:00,
2013-02-02 13:32:00,46.0,32.0,-100.00,ESE,105,2.0,4.0,58,-99.99,,,0.00,328.670013,,2013-02-02 21:32:00,
2013-02-02 13:42:00,46.0,32.0,-100.00,ESE,105,2.0,4.0,58,-99.99,,,0.00,328.670013,,2013-02-02 21:42:00,
2013-02-02 13:52:00,46.0,32.0,-100.00,ESE,105,2.0,4.0,58,-99.99,,,0.00,328.670013,,2013-02-02 21:52:00,
2013-02-02 14:02:00,46.0,32.0,-100.00,ESE,105,2.0,4.0,58,-99.99,,,0.00,328.670013,,2013-02-02 22:02:00,
2013-02-02 14:11:00,46.0,32.0,-100.00,ESE,105,2.0,4.0,58,-99.99,,,0.00,328.670013,,2013-02-02 22:11:00,
2013-02-02 14:32:00,46.0,32.0,-100.00,North,4,2.0,5.0,56,-99.99,,,0.00,215.699997,,2013-02-02 22:32:00,
2013-02-02 14:42:00,46.0,32.0,-100.00,North,4,2.0,5.0,56,-99.99,,,0.00,215.699997,,2013-02-02 22:42:00,
2013-02-02 14:52:00,46.0,32.0,-100.00,North,4,2.0,5.0,56,-99.99,,,0.00,215.699997,,2013-02-02 22:52:00,
2013-02-02 15:01:00,46.0,32.0,-100.00,North,4,2.0,5.0,56,-99.99,,,0.00,215.699997,,2013-02-02 23:01:00,
2013-02-02 15:11:00,46.0,32.0,-100.00,North,4,2.0,5.0,56,-99.99,,,0.00,215.699997,,2013-02-02 23:11:00,
2013-02-02 15:41:00,47.0,32.0,-100.00,NE,38,2.0,6.0,56,-99.99,,,0.00,188.389999,,2013-02-02 23:41:00,
2013-02-02 15:52:00,47.0,32.0,-100.00,NE,38,2.0,6.0,56,-99.99,,,0.00,188.389999,,2013-02-02 23:52:00,
2013-02-02 16:01:00,47.0,32.0,-100.00,NE,38,2.0,6.0,56,-99.99,,,0.00,188.389999,,2013-02-03 00:01:00,
2013-02-02 16:11:00,47.0,32.0,-100.00,NE,38,2.0,6.0,56,-99.99,,,0.00,188.389999,,2013-02-03 00:11:00,
2013-02-02 16:41:00,47.0,32.0,-100.00,North,10,3.0,4.0,56,-99.99,,,0.00,86.349998,,2013-02-03 00:41:00,
2013-02-02 16:52:00,47.0,32.0,-100.00,North,10,3.0,4.0,56,-99.99,,,0.00,86.349998,,2013-02-03 00:52:00,
2013-02-02 17:02:00,47.0,32.0,-100.00,North,10,3.0,4.0,56,-99.99,,,0.00,86.349998,,2013-02-03 01:02:00,
2013-02-02 17:11:00,47.0,32.0,-100.00,North,10,3.0,4.0,56,-99.99,,,0.00,86.349998,,2013-02-03 01:11:00,
2013-02-02 17:41:00,44.0,32.0,-100.00,East,90,2.0,3.0,61,-99.99,,,0.00,8.720000,,2013-02-03 01:41:00,
2013-02-02 17:52:00,44.0,32.0,-100.00,East,90,2.0,3.0,61,-99.99,,,0.00,8.720000,,2013-02-03 01:52:00,
2013-02-02 18:01:00,44.0,32.0,-100.00,East,90,2.0,3.0,61,-99.99,,,0.00,8.720000,,2013-02-03 02:01:00,
2013-02-02 18:11:00,44.0,32.0,-100.00,East,90,2.0,3.0,61,-99.99,,,0.00,8.720000,,2013-02-03 02:11:00,
2013-02-02 18:41:00,39.0,31.0,-100.00,NNE,23,1.0,2.0,71,-99.99,,,0.00,0.000000,,2013-02-03 02:41:00,
2013-02-02 18:52:00,39.0,31.0,-100.00,NNE,23,1.0,2.0,71,-99.99,,,0.00,0.000000,,2013-02-03 02:52:00,
2013-02-02 19:02:00,39.0,31.0,-100.00,NNE,23,1.0,2.0,71,-99.99,,,0.00,0.000000,,2013-02-03 03:02:00,
2013-02-02 19:11:00,39.0,31.0,-100.00,NNE,23,1.0,2.0,71,-99.99,,,0.00,0.000000,,2013-02-03 03:11:00,
2013-02-02 19:41:00,35.0,30.0,-100.00,SW,226,3.0,4.0,81,-99.99,,,0.00,0.000000,,2013-02-03 03:41:00,
2013-02-02 19:52:00,35.0,30.0,-100.00,SW,226,3.0,4.0,81,-99.99,,,0.00,0.000000,,2013-02-03 03:52:00,
2013-02-02 20:01:00,35.0,30.0,-100.00,SW,226,3.0,4.0,81,-99.99,,,0.00,0.000000,,2013-02-03 04:01:00,
2013-02-02 20:11:00,35.0,30.0,-100.00,SW,226,3.0,4.0,81,-99.99,,,0.00,0.000000,,2013-02-03 04:11:00,
2013-02-02 20:42:00,33.0,28.0,-100.00,SSW,196,1.0,3.0,84,-99.99,,,0.00,0.000000,,2013-02-03 04:42:00,
2013-02-02 20:52:00,33.0,28.0,-100.00,SSW,196,1.0,3.0,84,-99.99,,,0.00,0.000000,,2013-02-03 04:52:00,
2013-02-02 21:03:00,33.0,28.0,-100.00,SSW,196,1.0,3.0,84,-99.99,,,0.00,0.000000,,2013-02-03 05:03:00,
2013-02-02 21:11:00,33.0,28.0,-100.00,SSW,196,1.0,3.0,84,-99.99,,,0.00,0.000000,,2013-02-03 05:11:00,
2013-02-02 21:41:00,33.0,29.0,-100.00,WNW,283,1.0,2.0,84,-99.99,,,0.00,0.000000,,2013-02-03 05:41:00,
2013-02-02 21:52:00,33.0,29.0,-100.00,WNW,283,1.0,2.0,84,-99.99,,,0.00,0.000000,,2013-02-03 05:52:00,
2013-02-02 22:02:00,33.0,29.0,-100.00,WNW,283,1.0,2.0,84,-99.99,,,0.00,0.000000,,2013-02-03 06:02:00,
2013-02-02 22:11:00,33.0,29.0,-100.00,WNW,283,1.0,2.0,84,-99.99,,,0.00,0.000000,,2013-02-03 06:11:00,
2013-02-02 22:41:00,30.0,28.0,-100.00,ENE,62,0.0,1.0,95,-99.99,,,0.00,0.000000,,2013-02-03 06:41:00,
2013-02-02 22:52:00,30.0,28.0,-100.00,ENE,62,0.0,1.0,95,-99.99,,,0.00,0.000000,,2013-02-03 06:52:00,
2013-02-02 23:01:00,30.0,28.0,-100.00,ENE,62,0.0,1.0,95,-99.99,,,0.00,0.000000,,2013-02-03 07:01:00,
2013-02-02 23:11:00,30.0,28.0,-100.00,ENE,62,0.0,1.0,95,-99.99,,,0.00,0.000000,,2013-02-03 07:11:00,
2013-02-02 23:41:00,26.0,25.0,-100.00,WSW,248,1.0,4.0,95,-99.99,,,0.00,0.000000,,2013-02-03 07:41:00,
2013-02-02 23:52:00,26.0,25.0,-100.00,WSW,248,1.0,4.0,95,-99.99,,,0.00,0.000000,,2013-02-03 07:52:00,